createdAt,value
2023-03-11T00:04:22.998Z,100336.09
2023-03-11T00:09:25.776Z,100227.44
2023-03-11T00:14:28.937Z,100366.66
2023-03-11T00:19:33.614Z,100354.47
2023-03-11T00:24:42.786Z,100370.19
2023-03-11T00:29:45.548Z,100381.56
2023-03-11T00:35:00.029Z,100306.84
2023-03-11T00:40:04.349Z,100381.50
2023-03-11T00:45:08.273Z,100402.44
2023-03-11T00:50:17.761Z,100348.59
2023-03-11T00:55:22.784Z,100363.41
2023-03-11T01:00:33.476Z,100386.41
2023-03-11T01:05:39.944Z,100402.16
2023-03-11T01:10:44.894Z,100394.09
2023-03-11T01:15:49.066Z,100412.31
2023-03-11T01:20:54.145Z,100387.09
2023-03-11T01:25:56.873Z,100307.63
2023-03-11T01:31:02.006Z,100413.50
2023-03-11T01:36:10.166Z,100386.66
2023-03-11T01:41:13.464Z,100426.22
2023-03-11T01:46:19.207Z,100440.22
2023-03-11T01:51:29.671Z,100419.69
2023-03-11T01:56:33.730Z,100437.03
2023-03-11T02:01:40.779Z,100442.94
2023-03-11T02:06:45.534Z,100441.97
2023-03-11T02:11:49.313Z,100314.34
2023-03-11T02:16:52.751Z,100456.25
2023-03-11T02:21:57.513Z,100425.19
2023-03-11T02:27:04.015Z,100429.38
2023-03-11T02:32:08.959Z,100359.56
2023-03-11T02:37:18.377Z,100450.31
2023-03-11T02:42:31.341Z,100380.91
2023-03-11T02:47:36.319Z,100316.41
2023-03-11T02:52:39.489Z,100465.41
2023-03-11T02:57:46.628Z,100465.22
2023-03-11T03:02:58.049Z,100416.00
2023-03-11T03:08:02.728Z,100436.28
2023-03-11T03:13:06.963Z,100478.53
2023-03-11T03:18:09.987Z,100480.41
2023-03-11T03:23:13.302Z,100378.59
2023-03-11T03:28:19.158Z,100482.00
2023-03-11T03:33:23.321Z,100471.91
2023-03-11T03:38:26.122Z,100500.59
2023-03-11T03:43:32.445Z,100506.06
2023-03-11T03:48:35.553Z,100507.69
2023-03-11T03:53:41.889Z,100532.91
2023-03-11T03:58:46.358Z,100447.72
2023-03-11T04:03:49.349Z,100501.13
2023-03-11T04:08:53.387Z,100547.09
2023-03-11T04:14:02.378Z,100498.19
2023-03-11T04:19:06.647Z,100414.41
2023-03-11T04:24:11.740Z,100522.34
2023-03-11T04:29:19.670Z,100559.81
2023-03-11T04:34:26.067Z,100458.34
2023-03-11T04:39:29.255Z,100567.59
2023-03-11T04:44:35.980Z,100520.81
2023-03-11T04:49:41.743Z,100100.19
2023-03-11T04:54:44.949Z,100537.72
2023-03-11T04:59:49.313Z,100537.69
2023-03-11T05:04:52.695Z,100579.84
2023-03-11T05:09:55.970Z,100550.03
2023-03-11T05:15:01.564Z,100498.69
2023-03-11T05:20:07.878Z,100554.53
2023-03-11T05:25:11.275Z,100594.03
2023-03-11T05:30:16.310Z,100575.13
2023-03-11T05:35:21.504Z,100595.25
2023-03-11T05:40:26.720Z,100602.25
2023-03-11T05:45:30.867Z,100593.06
2023-03-11T05:50:35.983Z,100615.41
2023-03-11T05:55:39.415Z,100616.44
2023-03-11T06:00:43.967Z,100586.34
2023-03-11T06:05:47.393Z,100579.75
2023-03-11T06:10:50.306Z,100622.75
2023-03-11T06:15:57.027Z,100574.00
2023-03-11T06:21:02.370Z,100551.56
2023-03-11T06:26:07.579Z,100588.88
2023-03-11T06:31:19.319Z,100575.63
2023-03-11T06:36:23.385Z,100576.69
2023-03-11T06:41:27.156Z,100679.16
2023-03-11T06:46:32.135Z,100675.44
2023-03-11T06:51:37.268Z,100682.59
2023-03-11T06:56:46.468Z,100656.91
2023-03-11T07:01:51.754Z,100685.88
2023-03-11T07:06:58.700Z,100703.13
2023-03-11T07:12:02.028Z,100686.19
2023-03-11T07:17:11.194Z,100734.06
2023-03-11T07:22:20.945Z,100696.69
2023-03-11T07:27:23.699Z,100748.78
2023-03-11T07:32:30.880Z,100701.66
2023-03-11T07:37:33.574Z,100752.47
2023-03-11T07:42:36.228Z,100700.97
2023-03-11T07:47:40.880Z,100743.19
2023-03-11T07:52:44.006Z,100744.88
2023-03-11T07:57:49.019Z,100795.03
2023-03-11T08:02:53.429Z,100778.56
2023-03-11T08:07:56.508Z,100692.09
2023-03-11T08:13:02.314Z,100791.13
2023-03-11T08:18:06.907Z,100801.63
2023-03-11T08:23:12.337Z,100726.19
2023-03-11T08:28:15.094Z,100805.56
2023-03-11T08:33:22.271Z,100812.66
2023-03-11T08:38:25.255Z,100794.25
2023-03-11T08:43:29.109Z,100748.59
2023-03-11T08:48:34.048Z,100810.63
2023-03-11T08:53:37.603Z,100813.06
2023-03-11T08:58:42.951Z,100825.06
2023-03-11T09:03:47.733Z,100826.91
2023-03-11T09:08:50.628Z,100821.47
2023-03-11T09:13:53.626Z,100800.28
2023-03-11T09:19:00.238Z,100827.53
2023-03-11T09:24:04.214Z,100751.81
2023-03-11T09:29:09.935Z,100758.06
2023-03-11T09:34:16.124Z,100813.88
2023-03-11T09:39:18.956Z,100839.97
2023-03-11T09:44:28.340Z,100851.06
2023-03-11T09:49:44.034Z,100842.00
2023-03-11T09:54:49.795Z,100828.09
2023-03-11T09:59:53.479Z,100848.69
2023-03-11T10:05:02.601Z,100864.97
2023-03-11T10:10:13.267Z,100780.09
2023-03-11T10:15:25.389Z,100862.25
2023-03-11T10:20:37.762Z,100873.75
2023-03-11T10:25:54.658Z,100875.59
2023-03-11T10:31:02.424Z,100881.84
2023-03-11T10:36:12.073Z,100530.84
2023-03-11T10:41:21.583Z,100806.09
2023-03-11T10:46:27.484Z,100878.88
2023-03-11T10:51:36.409Z,100882.66
2023-03-11T10:56:41.611Z,100794.66
2023-03-11T11:01:55.663Z,100825.97
2023-03-11T11:07:00.702Z,100812.34
2023-03-11T11:12:06.154Z,100883.38
2023-03-11T11:17:18.916Z,100814.41
2023-03-11T11:22:25.020Z,100892.09
2023-03-11T11:27:30.801Z,100784.13
2023-03-11T11:32:37.144Z,100810.34
2023-03-11T11:37:46.206Z,100877.09
2023-03-11T11:42:56.409Z,100865.00
2023-03-11T11:48:07.763Z,100883.69
2023-03-11T11:53:25.257Z,100886.00
2023-03-11T11:58:28.542Z,100880.97
2023-03-11T12:03:45.777Z,100742.03
2023-03-11T12:09:00.498Z,100737.47
2023-03-11T12:14:07.062Z,100880.03
2023-03-11T12:19:24.562Z,100833.22
2023-03-11T12:24:50.998Z,100881.53
2023-03-11T12:29:57.165Z,100843.50
2023-03-11T12:35:13.357Z,100814.56
2023-03-11T12:40:49.092Z,100449.13
2023-03-11T12:45:53.217Z,100638.25
2023-03-11T12:50:56.564Z,100880.91
2023-03-11T12:56:12.391Z,100861.13
2023-03-11T13:01:38.693Z,100847.41
2023-03-11T13:07:07.318Z,100881.28
2023-03-11T13:12:41.523Z,100867.28
2023-03-11T13:17:57.106Z,100881.69
2023-03-11T13:23:21.119Z,100845.91
2023-03-11T13:28:52.983Z,100780.84
2023-03-11T13:33:57.441Z,100579.03
2023-03-11T13:39:26.869Z,100600.19
2023-03-11T13:44:38.147Z,100858.75
2023-03-11T13:49:46.373Z,100752.84
2023-03-11T13:55:04.863Z,100848.84
2023-03-11T14:00:17.860Z,100880.16
2023-03-11T14:05:51.221Z,100641.94
2023-03-11T14:11:00.172Z,100412.59
2023-03-11T14:16:17.905Z,100766.28
2023-03-11T14:21:31.293Z,100704.69
2023-03-11T14:26:37.887Z,100878.75
2023-03-11T14:31:56.563Z,100410.13
2023-03-11T14:37:03.488Z,100903.13
2023-03-11T14:42:14.174Z,100898.69
2023-03-11T14:47:46.763Z,100693.91
2023-03-11T14:53:13.944Z,100815.16
2023-03-11T14:59:12.529Z,100895.88
2023-03-11T15:04:38.121Z,100741.50
2023-03-11T15:09:55.254Z,100659.34
2023-03-11T15:15:02.706Z,100451.47
2023-03-11T15:20:46.407Z,100358.34
2023-03-11T15:26:27.448Z,100302.63
2023-03-11T15:31:53.571Z,100378.44
2023-03-11T15:37:18.264Z,100906.09
2023-03-11T15:42:27.049Z,100908.97
2023-03-11T15:47:32.047Z,100708.16
2023-03-11T15:52:37.672Z,100900.06
2023-03-11T15:57:42.392Z,100840.56
2023-03-11T16:02:46.835Z,100758.09
2023-03-11T16:07:54.684Z,100902.88
2023-03-11T16:13:04.580Z,100897.84
2023-03-11T16:18:09.084Z,100908.34
2023-03-11T16:23:20.364Z,100649.78
2023-03-11T16:28:26.996Z,100911.13
2023-03-11T16:33:29.955Z,100906.34
2023-03-11T16:38:34.369Z,100647.19
2023-03-11T16:43:42.046Z,100732.22
2023-03-11T16:48:44.775Z,100698.91
2023-03-11T16:53:47.942Z,100719.41
2023-03-11T16:58:52.234Z,100895.50
2023-03-11T17:03:55.177Z,100924.00
2023-03-11T17:09:00.821Z,100898.16
2023-03-11T17:14:15.808Z,100885.63
2023-03-11T17:19:19.708Z,100827.97
2023-03-11T17:24:22.589Z,100934.44
2023-03-11T17:29:27.443Z,100664.00
2023-03-11T17:34:30.161Z,100723.28
2023-03-11T17:39:33.841Z,100898.34
2023-03-11T17:44:51.043Z,100444.88
2023-03-11T17:49:55.135Z,100939.38
2023-03-11T17:54:58.651Z,100944.00
2023-03-11T18:00:14.209Z,100851.72
2023-03-11T18:05:18.753Z,100644.72
2023-03-11T18:10:29.505Z,100409.16
2023-03-11T18:15:36.251Z,100811.06
2023-03-11T18:20:39.338Z,100894.34
2023-03-11T18:25:45.235Z,100934.00
2023-03-11T18:31:09.138Z,100681.38
2023-03-11T18:36:14.000Z,100616.66
2023-03-11T18:41:17.472Z,100912.81
2023-03-11T18:46:26.370Z,100663.69
2023-03-11T18:51:35.557Z,100936.94
2023-03-11T18:56:41.828Z,100342.50
2023-03-11T19:01:51.983Z,100767.25
2023-03-11T19:06:55.500Z,100911.41
2023-03-11T19:11:59.748Z,100591.91
2023-03-11T19:17:05.853Z,100502.88
2023-03-11T19:22:11.391Z,100772.66
2023-03-11T19:27:15.027Z,100390.00
2023-03-11T19:32:22.022Z,100740.66
2023-03-11T19:37:25.385Z,100851.19
2023-03-11T19:42:28.605Z,100906.50
2023-03-11T19:47:36.211Z,100441.31
2023-03-11T19:52:39.771Z,100981.88
2023-03-11T19:58:01.859Z,100818.28
2023-03-11T20:03:08.050Z,100513.19
2023-03-11T20:08:14.195Z,100885.53
2023-03-11T20:13:20.317Z,100919.75
2023-03-11T20:18:24.905Z,100365.94
2023-03-11T20:23:32.852Z,100782.09
2023-03-11T20:28:40.868Z,100575.09
2023-03-11T20:33:45.509Z,100515.34
2023-03-11T20:38:51.875Z,100649.22
2023-03-11T20:43:57.775Z,100960.50
2023-03-11T20:49:02.495Z,100803.38
2023-03-11T20:54:12.889Z,101013.38
2023-03-11T20:59:16.940Z,100775.88
2023-03-11T21:04:24.397Z,100927.16
2023-03-11T21:09:27.428Z,100804.75
2023-03-11T21:14:30.647Z,100764.75
2023-03-11T21:19:35.323Z,100942.28
2023-03-11T21:24:38.194Z,100966.97
2023-03-11T21:29:47.789Z,100899.78
2023-03-11T21:34:52.302Z,100966.84
2023-03-11T21:39:58.532Z,100688.78
2023-03-11T21:45:05.362Z,100965.53
2023-03-11T21:50:12.117Z,100770.84
2023-03-11T21:55:21.743Z,100971.66
2023-03-11T22:00:25.141Z,100990.78
2023-03-11T22:05:29.672Z,100760.53
2023-03-11T22:10:33.725Z,100828.13
2023-03-11T22:15:38.204Z,100881.13
2023-03-11T22:20:42.684Z,100968.25
2023-03-11T22:25:45.914Z,100888.88
2023-03-11T22:30:55.724Z,100952.34
2023-03-11T22:36:03.827Z,100827.44
2023-03-11T22:41:11.511Z,100690.03
2023-03-11T22:46:14.434Z,100690.38
2023-03-11T22:51:20.046Z,100990.63
2023-03-11T22:56:24.276Z,100853.03
2023-03-11T23:01:34.177Z,100954.84
2023-03-11T23:06:39.715Z,100971.97
2023-03-11T23:12:04.927Z,100463.63
2023-03-11T23:17:10.509Z,100515.44
2023-03-11T23:22:17.764Z,100953.25
2023-03-11T23:27:27.064Z,100502.09
2023-03-11T23:32:32.496Z,100790.91
2023-03-11T23:37:38.449Z,100489.72
2023-03-11T23:42:50.890Z,100811.81
2023-03-11T23:47:57.886Z,100934.47
2023-03-11T23:53:10.276Z,100677.09
2023-03-11T23:58:13.844Z,100849.94
